Aviation Digital Data Service (ADDS)

Output produced by METARs form (1537 UTC 03 July 2015)
found at http://aviationweather.gov/adds/metars/
 
KSBY 031137Z 0312/0412 VRB03KT 5SM BR SCT004 BKN080 
     FM031400 11006KT P6SM BKN030 BKN080 
     FM032100 14006KT 5SM -SHRA BKN030